Time;durP1;ratioP1;P1;durP2;ratioP2;P2;SDS_P1;SDS_P2;PMS_P1;PMS_P2;Temp;Humidity;BMP_temperature;BMP_pressure;BME280_temperature;BME280_humidity;BME280_pressure;Samples;Min_cycle;Max_cycle;Signal;HPM_P1;HPM_P2
2022/01/10 00:03:10;;;;;;;7.63;3.60;;;4.10;99.90;;;;;;10249557;28;86134;-47
2022/01/10 00:08:14;;;;;;;10.43;3.38;;;4.20;99.90;;;;;;10247126;28;83942;-56
2022/01/10 00:13:15;;;;;;;6.47;3.50;;;4.20;99.90;;;;;;10249197;28;83838;-47
2022/01/10 00:18:15;;;;;;;8.73;4.00;;;4.30;99.90;;;;;;10248068;28;84198;-48
2022/01/10 00:23:16;;;;;;;7.30;3.28;;;4.20;99.90;;;;;;10249470;28;83745;-54
2022/01/10 00:28:17;;;;;;;6.97;3.78;;;4.30;99.90;;;;;;10248439;28;84229;-55
2022/01/10 00:33:17;;;;;;;12.00;4.82;;;4.30;99.90;;;;;;10249207;28;83953;-49
2022/01/10 00:38:18;;;;;;;11.02;3.78;;;4.40;99.90;;;;;;10249911;28;84223;-52
2022/01/10 00:43:30;;;;;;;9.40;3.75;;;4.40;99.90;;;;;;10249406;28;86180;-51
2022/01/10 00:48:31;;;;;;;7.45;4.68;;;4.30;99.90;;;;;;10246015;28;84992;-53
2022/01/10 00:53:32;;;;;;;8.55;4.43;;;4.40;99.90;;;;;;10246595;28;83946;-48
2022/01/10 00:58:34;;;;;;;7.63;4.05;;;4.40;99.90;;;;;;10246690;28;85297;-45
2022/01/10 01:03:36;;;;;;;10.25;4.65;;;4.50;99.90;;;;;;10246130;28;84226;-50
2022/01/10 01:08:38;;;;;;;11.23;4.43;;;4.50;99.90;;;;;;10245778;28;85209;-54
2022/01/10 01:14:07;;;;;;;8.63;4.07;;;4.50;99.90;;;;;;10246010;28;86114;-55
2022/01/10 01:24:07;;;;;;;8.38;4.70;;;4.50;99.90;;;;;;10245196;28;85096;-53
2022/01/10 01:29:10;;;;;;;12.27;4.85;;;4.60;99.90;;;;;;10244893;28;85897;-53
2022/01/10 01:34:14;;;;;;;7.93;4.43;;;4.60;99.90;;;;;;10246630;28;85210;-53
2022/01/10 01:39:21;;;;;;;17.50;5.90;;;4.60;99.90;;;;;;10244995;28;86183;-51
2022/01/10 01:44:24;;;;;;;15.13;4.90;;;4.60;99.90;;;;;;10245393;28;85245;-53
2022/01/10 01:49:25;;;;;;;8.80;4.75;;;4.60;99.90;;;;;;10246824;28;86603;-53
2022/01/10 01:54:26;;;;;;;7.53;4.25;;;4.60;99.90;;;;;;10246541;28;83951;-51
2022/01/10 01:59:27;;;;;;;14.07;5.25;;;4.60;99.90;;;;;;10244058;28;86223;-53
2022/01/10 02:04:28;;;;;;;10.05;5.70;;;4.60;99.90;;;;;;10246239;28;84765;-50
2022/01/10 02:09:32;;;;;;;12.32;5.72;;;4.60;99.90;;;;;;10243957;28;86128;-51
2022/01/10 02:14:33;;;;;;;8.13;4.15;;;4.60;99.90;;;;;;10244833;28;85206;-52
2022/01/10 02:19:35;;;;;;;12.77;5.40;;;4.70;99.90;;;;;;10241758;28;85199;-52
2022/01/10 02:24:36;;;;;;;15.35;5.43;;;4.70;99.90;;;;;;10243979;28;85143;-50
2022/01/10 02:29:38;;;;;;;13.57;4.90;;;4.70;99.90;;;;;;10242872;28;85954;-53
2022/01/10 02:34:38;;;;;;;10.98;4.47;;;4.70;99.90;;;;;;10240703;28;86357;-53
2022/01/10 02:39:39;;;;;;;12.25;4.55;;;4.70;99.90;;;;;;10245271;28;84881;-54
2022/01/10 02:44:40;;;;;;;11.35;4.65;;;4.70;99.90;;;;;;10234650;28;86248;-49
2022/01/10 02:49:41;;;;;;;12.27;5.03;;;4.80;99.90;;;;;;10251618;28;83989;-47
2022/01/10 02:54:42;;;;;;;10.23;5.05;;;4.70;99.90;;;;;;10249708;28;85721;-53
2022/01/10 02:59:50;;;;;;;14.65;5.50;;;4.70;99.90;;;;;;10250183;28;86123;-49
2022/01/10 03:04:51;;;;;;;10.23;5.15;;;4.60;99.90;;;;;;10249627;28;85178;-52
2022/01/10 03:09:52;;;;;;;12.88;5.60;;;4.70;99.90;;;;;;10249597;28;85199;-49
2022/01/10 03:14:52;;;;;;;12.77;5.57;;;4.60;99.90;;;;;;10250016;28;86170;-53
2022/01/10 03:19:54;;;;;;;11.93;5.30;;;4.60;99.90;;;;;;10264363;22;86163;-54
2022/01/10 03:24:55;;;;;;;13.57;5.63;;;4.60;99.90;;;;;;10249167;28;85406;-56
2022/01/10 03:29:56;;;;;;;10.35;4.93;;;4.60;99.90;;;;;;10247593;28;85973;-56
2022/01/10 03:34:58;;;;;;;14.55;5.75;;;4.60;99.90;;;;;;10247604;28;86475;-57
2022/01/10 03:39:59;;;;;;;8.00;4.97;;;4.50;99.90;;;;;;10247122;28;85167;-56
2022/01/10 03:45:01;;;;;;;12.32;5.28;;;4.60;99.90;;;;;;10247570;28;86115;-55
2022/01/10 03:50:02;;;;;;;9.93;5.40;;;4.70;99.90;;;;;;10246831;28;86068;-56
2022/01/10 03:55:04;;;;;;;16.55;5.88;;;4.60;99.90;;;;;;10247088;28;85239;-56
2022/01/10 04:00:07;;;;;;;11.38;5.85;;;4.60;99.90;;;;;;10248184;28;83309;-57
2022/01/10 04:05:16;;;;;;;14.65;5.68;;;4.60;99.90;;;;;;10247068;28;83816;-58
2022/01/10 04:10:17;;;;;;;14.90;5.40;;;4.70;99.90;;;;;;10230048;28;85513;-54
2022/01/10 04:15:18;;;;;;;14.80;6.25;;;4.60;99.90;;;;;;10246417;28;86122;-56
2022/01/10 04:20:20;;;;;;;13.60;6.13;;;4.70;99.90;;;;;;10247266;28;83366;-54
2022/01/10 04:25:22;;;;;;;11.57;6.00;;;4.70;99.90;;;;;;10246334;28;85374;-55
2022/01/10 04:30:23;;;;;;;16.08;7.10;;;4.60;99.90;;;;;;10246171;28;83228;-53
2022/01/10 04:35:24;;;;;;;11.68;7.05;;;4.60;99.90;;;;;;10264457;28;83374;-55
2022/01/10 04:40:25;;;;;;;13.90;6.18;;;4.50;99.90;;;;;;10286617;28;86030;-55
2022/01/10 04:45:28;;;;;;;14.88;6.53;;;4.50;99.90;;;;;;10285548;28;85756;-54
2022/01/10 04:55:32;;;;;;;13.98;6.75;;;4.40;99.90;;;;;;10285298;28;86107;-56
2022/01/10 05:00:32;;;;;;;16.33;6.90;;;4.30;99.90;;;;;;10286926;28;83267;-53
2022/01/10 05:05:33;;;;;;;18.70;7.43;;;4.30;99.90;;;;;;10283881;28;85164;-52
2022/01/10 05:10:34;;;;;;;16.08;6.95;;;4.20;99.90;;;;;;10279314;28;86118;-55
2022/01/10 05:15:35;;;;;;;13.38;6.55;;;4.10;99.90;;;;;;10241985;28;86049;-53
2022/01/10 05:20:36;;;;;;;16.20;6.68;;;4.00;99.90;;;;;;10242652;28;85218;-53
2022/01/10 05:25:40;;;;;;;17.65;7.38;;;4.00;99.90;;;;;;10242721;28;86205;-54
2022/01/10 05:30:43;;;;;;;13.73;7.20;;;3.90;99.90;;;;;;10285843;28;83976;-54
2022/01/10 05:35:47;;;;;;;15.57;7.68;;;3.90;99.90;;;;;;10284486;28;85150;-58
2022/01/10 05:40:47;;;;;;;12.93;7.03;;;3.80;99.90;;;;;;10283823;28;84318;-54
2022/01/10 05:45:49;;;;;;;20.77;8.90;;;3.80;99.90;;;;;;10283751;28;86279;-50
2022/01/10 05:50:53;;;;;;;18.90;7.68;;;3.70;99.90;;;;;;10257990;28;85283;-54
2022/01/10 05:55:54;;;;;;;17.17;7.30;;;3.60;99.90;;;;;;10243657;28;85191;-55
2022/01/10 06:00:56;;;;;;;11.85;7.50;;;3.50;99.90;;;;;;10228106;28;85109;-54
2022/01/10 06:05:57;;;;;;;14.45;7.10;;;3.40;99.90;;;;;;10248328;28;84073;-54
2022/01/10 06:10:58;;;;;;;19.73;7.93;;;3.30;99.90;;;;;;10243548;28;85910;-53
2022/01/10 06:16:08;;;;;;;18.38;7.82;;;3.30;99.90;;;;;;10242775;28;86144;-54
2022/01/10 06:21:14;;;;;;;12.23;6.68;;;3.20;99.90;;;;;;10248279;28;86154;-54
2022/01/10 06:26:15;;;;;;;16.52;7.43;;;3.20;99.90;;;;;;10249184;28;86064;-52
2022/01/10 06:31:16;;;;;;;14.82;7.88;;;3.10;99.90;;;;;;10250904;28;84152;-55
2022/01/10 06:36:29;;;;;;;21.95;8.57;;;3.10;99.90;;;;;;10232730;28;86096;-56
2022/01/10 06:41:31;;;;;;;28.33;9.80;;;3.00;99.90;;;;;;10255696;28;85301;-58
2022/01/10 06:46:32;;;;;;;17.73;8.32;;;2.90;99.90;;;;;;10246664;28;85192;-56
2022/01/10 06:51:34;;;;;;;16.58;8.45;;;2.80;99.90;;;;;;10247806;28;85284;-56
2022/01/10 06:56:34;;;;;;;22.10;8.32;;;2.70;99.90;;;;;;10250509;28;84912;-56
2022/01/10 07:01:36;;;;;;;19.17;8.25;;;2.70;99.90;;;;;;10250004;28;85106;-54
2022/01/10 07:06:38;;;;;;;19.20;8.85;;;2.60;99.90;;;;;;10249486;28;85136;-55
2022/01/10 07:11:46;;;;;;;20.92;8.15;;;2.50;99.90;;;;;;10250081;28;86091;-54
2022/01/10 07:16:49;;;;;;;21.52;8.38;;;2.50;99.90;;;;;;10248898;28;86204;-55
2022/01/10 07:21:50;;;;;;;14.10;7.00;;;2.40;99.90;;;;;;10249027;28;85404;-58
2022/01/10 07:26:51;;;;;;;15.07;7.70;;;2.40;99.90;;;;;;10248392;28;84316;-58
2022/01/10 07:31:52;;;;;;;27.65;9.18;;;2.30;99.90;;;;;;10251564;28;83372;-59
2022/01/10 07:36:52;;;;;;;16.58;8.25;;;2.40;99.90;;;;;;10252760;28;84146;-62
2022/01/10 07:41:53;;;;;;;18.40;9.35;;;2.40;99.90;;;;;;10250949;28;84024;-59
2022/01/10 07:47:03;;;;;;;24.88;10.07;;;2.40;99.90;;;;;;10250357;28;85961;-59
2022/01/10 07:52:04;;;;;;;20.52;9.07;;;2.50;99.90;;;;;;10251283;28;83211;-59
2022/01/10 07:57:05;;;;;;;19.75;8.82;;;2.50;99.90;;;;;;10250408;28;84055;-59
2022/01/10 08:02:06;;;;;;;20.10;8.07;;;2.60;99.90;;;;;;10250328;28;83663;-60
2022/01/10 08:07:07;;;;;;;14.85;8.18;;;2.60;99.90;;;;;;10250214;28;84015;-59
2022/01/10 08:12:08;;;;;;;21.13;9.45;;;2.70;99.90;;;;;;10249620;28;83224;-59
2022/01/10 08:17:09;;;;;;;16.33;9.38;;;2.80;99.90;;;;;;10247996;28;83328;-58
2022/01/10 08:22:09;;;;;;;31.98;10.60;;;2.80;99.90;;;;;;10248759;28;84226;-58
2022/01/10 08:27:10;;;;;;;21.75;10.00;;;2.90;99.90;;;;;;10248262;28;83980;-59
2022/01/10 08:32:11;;;;;;;18.98;8.27;;;3.00;99.90;;;;;;10247776;28;86231;-59
2022/01/10 08:37:12;;;;;;;18.92;8.70;;;3.10;99.90;;;;;;10247374;28;83317;-57
2022/01/10 08:42:13;;;;;;;25.33;9.73;;;3.20;99.90;;;;;;10248565;28;83993;-59
2022/01/10 08:47:15;;;;;;;20.40;9.98;;;3.40;99.90;;;;;;10244790;28;83816;-55
2022/01/10 08:52:16;;;;;;;25.42;10.82;;;3.60;99.90;;;;;;10250983;28;84101;-59
2022/01/10 08:57:18;;;;;;;19.80;9.90;;;3.70;99.90;;;;;;10246006;28;85221;-60
2022/01/10 09:02:19;;;;;;;25.45;10.93;;;3.70;99.90;;;;;;10251524;28;83397;-58
2022/01/10 09:07:19;;;;;;;23.80;10.25;;;3.80;99.90;;;;;;10249469;28;84153;-52
2022/01/10 09:12:20;;;;;;;25.92;9.68;;;3.90;99.90;;;;;;10246369;28;83462;-56
2022/01/10 09:17:21;;;;;;;24.10;10.57;;;4.00;99.90;;;;;;10245588;28;84216;-62
2022/01/10 09:22:22;;;;;;;24.95;10.25;;;4.00;99.90;;;;;;10245963;28;83571;-59
2022/01/10 09:27:22;;;;;;;19.38;10.75;;;4.20;99.90;;;;;;10247279;28;84187;-53
2022/01/10 09:32:23;;;;;;;25.20;11.90;;;4.30;99.90;;;;;;10250791;28;83179;-58
2022/01/10 09:37:25;;;;;;;17.90;9.73;;;4.50;99.90;;;;;;10249996;28;84253;-53
2022/01/10 09:42:26;;;;;;;22.92;11.13;;;4.80;99.90;;;;;;10249285;28;85172;-61
2022/01/10 09:47:27;;;;;;;23.58;11.32;;;4.90;99.90;;;;;;10249406;28;84873;-60
2022/01/10 09:52:28;;;;;;;22.08;11.20;;;5.00;99.90;;;;;;10253262;28;84093;-57
2022/01/10 09:57:28;;;;;;;26.08;10.70;;;4.90;99.90;;;;;;10251986;28;83756;-58
2022/01/10 10:02:31;;;;;;;24.20;10.65;;;4.80;99.90;;;;;;10252313;28;83508;-58
2022/01/10 10:07:32;;;;;;;23.00;10.50;;;5.00;99.90;;;;;;10252157;28;83204;-58
2022/01/10 10:12:33;;;;;;;24.60;10.15;;;5.00;99.90;;;;;;10248861;28;83345;-59
2022/01/10 10:17:36;;;;;;;26.23;10.98;;;5.10;99.90;;;;;;10247383;28;84074;-56
2022/01/10 10:22:41;;;;;;;27.02;10.70;;;5.10;99.90;;;;;;10249823;28;84137;-59
2022/01/10 10:27:45;;;;;;;25.27;11.55;;;5.40;99.90;;;;;;10246078;28;84142;-57
2022/01/10 10:32:49;;;;;;;26.23;11.05;;;5.50;99.90;;;;;;10245526;28;83255;-63
2022/01/10 10:37:49;;;;;;;26.42;11.95;;;5.70;99.90;;;;;;10244895;28;83299;-61
2022/01/10 10:42:50;;;;;;;25.58;11.90;;;5.80;99.90;;;;;;10248832;28;83317;-61
2022/01/10 10:47:51;;;;;;;21.98;10.88;;;6.00;99.90;;;;;;10244776;28;83410;-60
2022/01/10 10:52:52;;;;;;;32.55;12.95;;;6.30;99.90;;;;;;10218336;28;83386;-55
2022/01/10 10:57:52;;;;;;;27.80;12.02;;;6.30;99.90;;;;;;10244464;28;83453;-52
2022/01/10 11:02:53;;;;;;;27.80;12.48;;;6.20;99.90;;;;;;10247088;28;84125;-51
2022/01/10 11:07:55;;;;;;;25.23;11.98;;;6.00;99.90;;;;;;10248738;28;86239;-49
2022/01/10 11:12:58;;;;;;;22.40;11.65;;;5.90;99.90;;;;;;10250760;28;83752;-55
2022/01/10 11:18:01;;;;;;;33.08;13.02;;;5.90;99.90;;;;;;10249295;28;83680;-52
2022/01/10 11:23:01;;;;;;;33.15;13.95;;;5.90;99.90;;;;;;10249780;28;83212;-58
2022/01/10 11:28:08;;;;;;;27.38;12.27;;;6.00;99.90;;;;;;10248763;28;85308;-49
2022/01/10 11:33:10;;;;;;;25.75;11.27;;;6.10;99.90;;;;;;10249883;28;83941;-52
2022/01/10 11:38:22;;;;;;;21.83;11.35;;;6.20;99.90;;;;;;10249121;28;84259;-50
2022/01/10 11:43:49;;;;;;;24.70;11.27;;;6.20;99.90;;;;;;10232397;28;83827;-50
2022/01/10 11:49:17;;;;;;;26.10;10.68;;;6.30;99.90;;;;;;10208950;28;83956;-53
2022/01/10 11:54:22;;;;;;;23.98;11.68;;;6.30;99.90;;;;;;10209531;28;83312;-48
2022/01/10 11:59:25;;;;;;;20.90;8.85;;;6.40;99.90;;;;;;10209125;28;84178;-52
2022/01/10 12:04:35;;;;;;;24.30;8.82;;;6.30;99.90;;;;;;10209017;28;83273;-49
2022/01/10 12:09:37;;;;;;;21.83;9.30;;;6.40;99.90;;;;;;10244048;28;84078;-52
2022/01/10 12:14:37;;;;;;;29.25;10.95;;;6.40;99.90;;;;;;10279960;22;84352;-58
2022/01/10 12:19:39;;;;;;;19.77;8.90;;;6.40;99.90;;;;;;10327805;28;86155;-57
2022/01/10 12:24:43;;;;;;;19.05;8.30;;;6.60;99.90;;;;;;10320555;28;85265;-56
2022/01/10 12:29:44;;;;;;;24.48;10.15;;;7.00;99.90;;;;;;10290760;28;84078;-60
2022/01/10 12:34:45;;;;;;;25.25;10.20;;;7.00;99.90;;;;;;10288338;28;86662;-58
2022/01/10 12:39:46;;;;;;;28.70;11.00;;;6.90;99.90;;;;;;10289341;28;83232;-55
2022/01/10 12:44:47;;;;;;;21.88;10.00;;;6.90;99.90;;;;;;10288626;28;84103;-58
2022/01/10 12:49:48;;;;;;;26.58;10.38;;;6.80;99.90;;;;;;10288245;28;83427;-55
2022/01/10 12:54:51;;;;;;;22.48;9.35;;;6.90;99.90;;;;;;10288534;28;83418;-53
2022/01/10 12:59:51;;;;;;;26.38;9.38;;;7.10;99.90;;;;;;10284762;28;83829;-53
2022/01/10 13:04:52;;;;;;;20.75;9.32;;;7.00;99.90;;;;;;10286337;28;84143;-55
2022/01/10 13:09:54;;;;;;;22.25;9.25;;;6.90;99.90;;;;;;10286504;28;83337;-54
2022/01/10 13:15:08;;;;;;;27.63;9.55;;;6.90;99.90;;;;;;10285007;28;84044;-53
2022/01/10 13:20:11;;;;;;;30.48;9.98;;;6.80;99.90;;;;;;10287357;28;83454;-56
2022/01/10 13:25:14;;;;;;;29.73;10.48;;;6.90;99.90;;;;;;10285799;28;84259;-54
2022/01/10 13:30:18;;;;;;;25.67;9.35;;;6.90;99.90;;;;;;10287127;28;84137;-50
2022/01/10 13:35:20;;;;;;;22.60;9.02;;;7.00;99.90;;;;;;10285206;28;84040;-53
2022/01/10 13:40:22;;;;;;;29.08;10.40;;;7.00;99.90;;;;;;10283553;28;84374;-52
2022/01/10 13:45:47;;;;;;;24.05;9.85;;;6.90;99.90;;;;;;10284295;28;86098;-53
2022/01/10 13:50:55;;;;;;;18.60;8.63;;;6.90;99.90;;;;;;10287307;28;84299;-46
2022/01/10 13:56:18;;;;;;;25.23;8.88;;;6.90;99.90;;;;;;10284659;28;86110;-52
2022/01/10 14:01:22;;;;;;;20.70;9.45;;;6.90;99.90;;;;;;10287586;28;84563;-59
2022/01/10 14:06:33;;;;;;;27.10;10.57;;;6.80;99.90;;;;;;10285501;28;86102;-57
2022/01/10 14:11:36;;;;;;;18.20;8.98;;;6.70;99.90;;;;;;10287828;28;83542;-56
2022/01/10 14:16:44;;;;;;;23.50;9.10;;;6.70;99.90;;;;;;10286096;28;84175;-55
2022/01/10 14:21:45;;;;;;;22.23;9.10;;;6.70;99.90;;;;;;10286643;28;84210;-57
2022/01/10 14:26:47;;;;;;;30.20;10.18;;;6.60;99.90;;;;;;10267298;28;85178;-52
2022/01/10 14:31:48;;;;;;;23.13;10.18;;;6.60;99.90;;;;;;10285314;28;84458;-53
2022/01/10 14:36:48;;;;;;;29.48;10.60;;;6.50;99.90;;;;;;10286264;28;83152;-56
2022/01/10 14:41:49;;;;;;;26.10;10.98;;;6.50;99.90;;;;;;10291972;28;86769;-58
2022/01/10 14:46:49;;;;;;;23.60;9.52;;;6.50;99.90;;;;;;10289463;28;83492;-58
2022/01/10 14:51:50;;;;;;;19.75;10.57;;;6.40;99.90;;;;;;10294097;28;84251;-56
2022/01/10 14:56:52;;;;;;;21.13;10.85;;;6.50;99.90;;;;;;10290408;28;83526;-60
2022/01/10 15:01:53;;;;;;;28.48;10.63;;;6.60;99.90;;;;;;10291162;28;86299;-59
2022/01/10 15:06:53;;;;;;;23.15;10.05;;;6.50;99.90;;;;;;10292129;28;83348;-61
2022/01/10 15:11:54;;;;;;;26.48;12.25;;;6.40;99.90;;;;;;10290106;28;83314;-57
2022/01/10 15:16:55;;;;;;;30.27;11.00;;;6.40;99.90;;;;;;10291632;28;83223;-58
2022/01/10 15:21:55;;;;;;;30.85;10.63;;;6.40;99.90;;;;;;10291769;28;85422;-56
2022/01/10 15:26:57;;;;;;;23.10;11.20;;;6.30;99.90;;;;;;10288474;28;84518;-54
2022/01/10 15:31:58;;;;;;;27.38;11.15;;;6.20;99.90;;;;;;10288955;28;84021;-57
2022/01/10 15:37:04;;;;;;;27.35;11.57;;;6.20;99.90;;;;;;10290080;28;83333;-56
2022/01/10 15:42:05;;;;;;;24.77;10.73;;;6.20;99.90;;;;;;10284902;28;83823;-54
2022/01/10 15:47:06;;;;;;;33.72;11.75;;;6.00;99.90;;;;;;10273583;28;84567;-55
2022/01/10 15:52:07;;;;;;;25.90;12.45;;;5.90;99.90;;;;;;10289183;28;83429;-52
2022/01/10 15:57:08;;;;;;;27.65;10.52;;;5.80;99.90;;;;;;10287113;28;84096;-49
2022/01/10 16:02:12;;;;;;;22.27;11.63;;;5.70;99.90;;;;;;10288308;28;83697;-56
2022/01/10 16:07:13;;;;;;;26.42;11.10;;;5.70;99.90;;;;;;10285218;28;85765;-51
2022/01/10 16:12:13;;;;;;;26.63;10.98;;;5.50;99.90;;;;;;10289588;28;84198;-52
2022/01/10 16:17:14;;;;;;;24.20;11.40;;;5.60;99.90;;;;;;10286105;28;84100;-50
2022/01/10 16:22:15;;;;;;;22.33;11.05;;;5.40;99.90;;;;;;10287488;28;83626;-52
2022/01/10 16:27:16;;;;;;;27.33;11.38;;;5.40;99.90;;;;;;10286765;28;86483;-54
2022/01/10 16:32:17;;;;;;;26.52;11.02;;;5.40;99.90;;;;;;10285831;28;83687;-59
2022/01/10 16:37:18;;;;;;;29.27;12.07;;;5.30;99.90;;;;;;10286270;28;86589;-52
2022/01/10 16:42:18;;;;;;;25.85;11.40;;;5.20;99.90;;;;;;10285430;28;83332;-57
2022/01/10 16:47:19;;;;;;;26.40;12.48;;;5.10;99.90;;;;;;10308990;28;83984;-52
2022/01/10 16:52:20;;;;;;;25.00;9.90;;;5.10;99.90;;;;;;10301901;28;84166;-52
2022/01/10 16:57:21;;;;;;;20.42;9.52;;;5.10;99.90;;;;;;10285965;28;84155;-52
2022/01/10 17:02:21;;;;;;;25.23;11.60;;;5.00;99.90;;;;;;10287544;28;84221;-56
2022/01/10 17:07:22;;;;;;;28.38;11.40;;;5.00;99.90;;;;;;10286659;28;83412;-50
2022/01/10 17:12:24;;;;;;;24.92;10.52;;;4.80;99.90;;;;;;10287589;28;84050;-53
2022/01/10 17:17:24;;;;;;;26.30;11.00;;;4.80;99.90;;;;;;10298085;28;84139;-56
2022/01/10 17:22:25;;;;;;;24.67;11.80;;;4.80;99.90;;;;;;10293853;28;84292;-54
2022/01/10 17:27:26;;;;;;;27.70;11.90;;;4.70;99.90;;;;;;10290120;28;84187;-52
2022/01/10 17:32:27;;;;;;;25.33;12.00;;;4.80;99.90;;;;;;10285020;28;84127;-51
2022/01/10 17:37:28;;;;;;;26.80;11.85;;;4.70;99.90;;;;;;10284477;28;83662;-54
2022/01/10 17:42:34;;;;;;;23.35;10.73;;;4.70;99.90;;;;;;10285035;28;84130;-53
2022/01/10 17:47:35;;;;;;;29.13;11.07;;;4.60;99.90;;;;;;10285608;28;84630;-54
2022/01/10 17:52:41;;;;;;;20.95;9.55;;;4.50;99.90;;;;;;10283319;28;83527;-53
2022/01/10 17:57:43;;;;;;;31.38;13.95;;;4.40;99.90;;;;;;10285607;28;83379;-49
2022/01/10 18:02:44;;;;;;;27.33;11.57;;;4.40;99.90;;;;;;10284200;28;85274;-56
2022/01/10 18:07:45;;;;;;;22.42;11.57;;;4.40;99.90;;;;;;10284953;28;84175;-56
2022/01/10 18:12:46;;;;;;;29.73;11.88;;;4.40;99.90;;;;;;10288945;28;83247;-56
2022/01/10 18:17:47;;;;;;;25.02;12.73;;;4.30;99.90;;;;;;10295819;28;83395;-55
2022/01/10 18:22:47;;;;;;;28.90;13.15;;;4.30;99.90;;;;;;10299616;28;83395;-60
2022/01/10 18:27:50;;;;;;;30.98;13.00;;;4.20;99.90;;;;;;10293316;22;84494;-53
2022/01/10 18:32:51;;;;;;;27.25;13.02;;;4.10;99.90;;;;;;10258904;28;85893;-55
2022/01/10 18:37:55;;;;;;;30.10;14.52;;;4.00;99.90;;;;;;10279465;28;84177;-56
2022/01/10 18:42:56;;;;;;;46.28;16.38;;;3.90;99.90;;;;;;10293628;28;84147;-56
2022/01/10 18:47:57;;;;;;;37.65;15.57;;;3.90;99.90;;;;;;10301443;28;83457;-56
2022/01/10 18:52:57;;;;;;;38.35;17.17;;;3.80;99.90;;;;;;10311604;28;83507;-56
2022/01/10 18:57:58;;;;;;;37.13;16.42;;;3.70;99.90;;;;;;10333203;28;83400;-52
2022/01/10 19:02:59;;;;;;;32.47;14.80;;;3.70;99.90;;;;;;10333631;28;84359;-54
2022/01/10 19:08:00;;;;;;;35.17;14.70;;;3.60;99.90;;;;;;10320794;28;84156;-56
2022/01/10 19:13:00;;;;;;;28.10;12.60;;;3.60;99.90;;;;;;10271317;28;83362;-50
2022/01/10 19:18:01;;;;;;;28.23;13.27;;;3.50;99.90;;;;;;10279580;28;83847;-51
2022/01/10 19:23:02;;;;;;;42.25;16.77;;;3.40;99.90;;;;;;10290191;28;83315;-55
2022/01/10 19:28:06;;;;;;;34.13;15.05;;;3.40;99.90;;;;;;10273427;28;85550;-55
2022/01/10 19:33:07;;;;;;;33.90;14.65;;;3.40;99.90;;;;;;10269745;28;84171;-57
2022/01/10 19:38:08;;;;;;;32.35;15.10;;;3.30;99.90;;;;;;10271149;28;83336;-54
2022/01/10 19:43:10;;;;;;;34.75;15.07;;;3.30;99.90;;;;;;10264686;28;84498;-57
2022/01/10 19:48:11;;;;;;;27.33;14.18;;;3.30;99.90;;;;;;10269271;28;84503;-55
2022/01/10 19:53:12;;;;;;;29.00;13.38;;;3.20;99.90;;;;;;10305821;28;83951;-56
2022/01/10 19:58:14;;;;;;;31.67;15.30;;;3.10;99.90;;;;;;10324394;28;84189;-55
2022/01/10 20:03:14;;;;;;;34.00;13.73;;;3.10;99.90;;;;;;10327694;28;84375;-56
2022/01/10 20:08:16;;;;;;;35.35;14.00;;;3.00;99.90;;;;;;10263018;28;84110;-55
2022/01/10 20:13:19;;;;;;;25.60;13.10;;;2.90;99.90;;;;;;10290165;28;84379;-56
2022/01/10 20:18:20;;;;;;;27.38;12.70;;;2.80;99.90;;;;;;10304685;28;86167;-54
2022/01/10 20:23:21;;;;;;;29.98;11.75;;;2.80;99.90;;;;;;10272277;28;84127;-55
2022/01/10 20:28:22;;;;;;;24.98;9.70;;;2.60;99.90;;;;;;10271115;28;83323;-54
2022/01/10 20:33:23;;;;;;;21.35;8.75;;;2.60;99.90;;;;;;10275869;28;84239;-51
2022/01/10 20:38:24;;;;;;;22.10;10.30;;;2.50;99.90;;;;;;10289059;28;83243;-54
2022/01/10 20:43:27;;;;;;;22.92;11.32;;;2.40;99.90;;;;;;10288534;28;84247;-55
2022/01/10 20:48:29;;;;;;;25.42;10.30;;;2.50;99.90;;;;;;10286763;28;83495;-52
2022/01/10 20:53:31;;;;;;;26.30;10.80;;;2.40;99.90;;;;;;10286795;28;85131;-55
2022/01/10 20:58:32;;;;;;;24.27;11.63;;;2.40;99.90;;;;;;10286885;28;84011;-53
2022/01/10 21:03:33;;;;;;;28.55;12.18;;;2.20;99.90;;;;;;10287301;28;83221;-54
2022/01/10 21:08:33;;;;;;;24.13;11.60;;;2.30;99.90;;;;;;10287352;28;84475;-52
2022/01/10 21:13:34;;;;;;;31.02;12.60;;;2.20;99.90;;;;;;10282526;28;83446;-56
2022/01/10 21:18:35;;;;;;;34.22;13.32;;;2.10;99.90;;;;;;10286638;28;83253;-50
2022/01/10 21:23:36;;;;;;;23.00;11.65;;;2.10;99.90;;;;;;10287044;28;83776;-52
2022/01/10 21:28:37;;;;;;;23.38;10.85;;;2.10;99.90;;;;;;10285582;28;84420;-53
2022/01/10 21:33:38;;;;;;;20.15;10.88;;;2.10;99.90;;;;;;10266438;28;84744;-54
2022/01/10 21:38:39;;;;;;;30.25;10.68;;;2.00;99.90;;;;;;10287193;28;85807;-53
2022/01/10 21:43:40;;;;;;;24.63;9.88;;;1.90;99.90;;;;;;10287886;28;84259;-54
2022/01/10 21:48:41;;;;;;;20.20;10.40;;;1.80;99.90;;;;;;10285842;28;84187;-53
2022/01/10 21:53:42;;;;;;;20.45;9.93;;;1.80;99.90;;;;;;10286792;28;84097;-55
2022/01/10 21:58:43;;;;;;;19.90;10.88;;;1.90;99.90;;;;;;10278765;28;84297;-50
2022/01/10 22:03:43;;;;;;;23.42;10.43;;;1.90;99.90;;;;;;10286079;28;84230;-55
2022/01/10 22:08:44;;;;;;;16.15;9.85;;;1.90;99.90;;;;;;10286169;28;83284;-54
2022/01/10 22:13:47;;;;;;;21.52;9.45;;;1.70;99.90;;;;;;10286016;28;83386;-51
2022/01/10 22:18:48;;;;;;;24.23;10.20;;;1.80;99.90;;;;;;10286258;28;84109;-50
2022/01/10 22:23:48;;;;;;;25.48;11.38;;;1.80;99.90;;;;;;10286606;28;84110;-50
2022/01/10 22:28:49;;;;;;;19.10;10.27;;;1.80;99.90;;;;;;10284680;28;84273;-52
2022/01/10 22:33:53;;;;;;;22.00;10.52;;;1.90;99.90;;;;;;10286577;28;83327;-51
2022/01/10 22:38:53;;;;;;;23.48;9.65;;;1.70;99.90;;;;;;10269849;28;83653;-54
2022/01/10 22:43:56;;;;;;;19.58;9.55;;;1.70;99.90;;;;;;10285856;28;83325;-54
2022/01/10 22:48:56;;;;;;;26.42;10.57;;;1.70;99.90;;;;;;10286310;28;84130;-53
2022/01/10 22:53:58;;;;;;;20.10;8.73;;;1.60;99.90;;;;;;10284368;28;85125;-55
2022/01/10 22:58:58;;;;;;;23.15;9.18;;;1.50;99.90;;;;;;10289260;28;83372;-53
2022/01/10 23:03:59;;;;;;;15.13;8.32;;;1.50;99.90;;;;;;10293078;28;83964;-54
2022/01/10 23:09:00;;;;;;;18.67;9.48;;;1.40;99.90;;;;;;10290890;28;83217;-53
2022/01/10 23:14:01;;;;;;;27.13;10.65;;;1.40;99.90;;;;;;10291352;28;84319;-52
2022/01/10 23:19:02;;;;;;;20.33;9.27;;;1.40;99.90;;;;;;10291851;28;83650;-50
2022/01/10 23:24:03;;;;;;;20.38;8.90;;;1.40;99.90;;;;;;10291800;28;83888;-52
2022/01/10 23:29:05;;;;;;;20.80;8.20;;;1.40;99.90;;;;;;10306272;28;85894;-53
2022/01/10 23:34:08;;;;;;;20.27;7.13;;;1.30;99.90;;;;;;10291855;28;83277;-54
2022/01/10 23:39:08;;;;;;;13.63;6.75;;;1.30;99.90;;;;;;10291181;28;83293;-55
2022/01/10 23:44:09;;;;;;;13.63;7.75;;;1.30;99.90;;;;;;10292176;28;83508;-55
2022/01/10 23:49:10;;;;;;;16.05;8.57;;;1.30;99.90;;;;;;10291110;28;83506;-55
2022/01/10 23:54:11;;;;;;;14.98;7.45;;;1.30;99.90;;;;;;10291350;28;84106;-53
2022/01/10 23:59:12;;;;;;;16.08;7.15;;;1.30;99.90;;;;;;10290965;28;84078;-53
